createdAt,value
2018-12-15T00:00:49.630Z,25.30
2018-12-15T00:03:17.137Z,25.23
2018-12-15T00:05:44.711Z,26.17
2018-12-15T00:08:12.237Z,25.03
2018-12-15T00:10:39.732Z,23.57
2018-12-15T00:13:07.645Z,24.93
2018-12-15T00:15:35.449Z,24.43
2018-12-15T00:18:02.999Z,25.50
2018-12-15T00:20:30.499Z,25.17
2018-12-15T00:22:58.486Z,23.37
2018-12-15T00:25:25.983Z,25.07
2018-12-15T00:27:53.539Z,25.23
2018-12-15T00:30:21.067Z,24.57
2018-12-15T00:32:48.557Z,24.33
2018-12-15T00:35:16.025Z,24.53
2018-12-15T00:37:43.515Z,24.13
2018-12-15T00:40:10.999Z,24.07
2018-12-15T00:42:38.471Z,24.80
2018-12-15T00:45:06.088Z,24.60
2018-12-15T00:47:33.601Z,23.80
2018-12-15T00:50:01.211Z,23.27
2018-12-15T00:52:28.701Z,23.20
2018-12-15T00:54:56.178Z,24.60
2018-12-15T00:57:23.716Z,24.57
2018-12-15T00:59:51.301Z,23.30
2018-12-15T01:02:18.815Z,25.40
2018-12-15T01:04:46.265Z,25.07
2018-12-15T01:07:14.204Z,24.83
2018-12-15T01:09:41.686Z,23.97
2018-12-15T01:12:09.816Z,26.43
2018-12-15T01:14:37.282Z,24.00
2018-12-15T01:17:04.772Z,24.83
2018-12-15T01:19:32.263Z,24.13
2018-12-15T01:21:59.756Z,25.70
2018-12-15T01:24:27.250Z,24.60
2018-12-15T01:26:55.593Z,25.80
2018-12-15T01:29:23.057Z,24.73
2018-12-15T01:31:50.512Z,25.20
2018-12-15T01:34:18.036Z,25.93
2018-12-15T01:36:46.154Z,25.53
2018-12-15T01:39:13.641Z,23.50
2018-12-15T01:41:41.559Z,25.43
2018-12-15T01:44:09.064Z,26.13
2018-12-15T01:46:36.587Z,27.97
2018-12-15T01:49:04.168Z,25.70
2018-12-15T01:51:31.810Z,25.23
2018-12-15T01:53:59.312Z,26.03
2018-12-15T01:56:27.829Z,27.17
2018-12-15T01:58:55.308Z,26.40
2018-12-15T02:01:22.787Z,25.33
2018-12-15T02:03:50.252Z,26.43
2018-12-15T02:06:18.077Z,27.13
2018-12-15T02:08:45.633Z,26.73
2018-12-15T02:11:13.517Z,26.57
2018-12-15T02:13:41.049Z,27.47
2018-12-15T02:16:08.519Z,25.97
2018-12-15T02:18:35.998Z,28.60
2018-12-15T02:21:03.579Z,27.83
2018-12-15T02:23:31.098Z,27.83
2018-12-15T02:25:58.565Z,26.43
2018-12-15T02:28:26.115Z,26.97
2018-12-15T02:30:53.594Z,28.13
2018-12-15T02:33:21.058Z,29.23
2018-12-15T02:35:48.540Z,28.43
2018-12-15T02:38:16.053Z,25.73
2018-12-15T02:40:43.559Z,28.87
2018-12-15T02:43:11.109Z,28.40
2018-12-15T02:45:39.267Z,28.10
2018-12-15T02:48:06.752Z,27.40
2018-12-15T02:50:34.262Z,27.90
2018-12-15T02:53:01.830Z,30.67
2018-12-15T02:55:29.298Z,29.07
2018-12-15T02:57:57.700Z,30.13
2018-12-15T03:00:25.174Z,29.30
2018-12-15T03:02:52.697Z,29.23
2018-12-15T03:05:20.206Z,28.30
2018-12-15T03:07:47.674Z,28.63
2018-12-15T03:10:15.141Z,29.07
2018-12-15T03:12:42.623Z,30.07
2018-12-15T03:15:10.290Z,30.10
2018-12-15T03:17:37.815Z,29.13
2018-12-15T03:20:05.495Z,29.57
2018-12-15T03:22:32.980Z,28.53
2018-12-15T03:25:00.456Z,29.07
2018-12-15T03:27:28.637Z,31.13
2018-12-15T03:29:56.274Z,29.67
2018-12-15T03:32:23.756Z,30.13
2018-12-15T03:34:51.226Z,28.87
2018-12-15T03:37:18.950Z,30.40
2018-12-15T03:39:46.495Z,30.67
2018-12-15T03:42:14.045Z,32.17
2018-12-15T03:44:41.649Z,31.90
2018-12-15T03:47:09.127Z,33.00
2018-12-15T03:49:36.625Z,30.83
2018-12-15T03:52:04.294Z,30.97
2018-12-15T03:54:31.786Z,28.63
2018-12-15T03:56:59.254Z,30.17
2018-12-15T03:59:27.114Z,28.77
2018-12-15T04:01:54.649Z,27.93
2018-12-15T04:04:22.193Z,26.80
2018-12-15T04:06:49.662Z,25.77
2018-12-15T04:09:17.168Z,26.07
2018-12-15T04:11:44.664Z,25.20
2018-12-15T04:14:12.151Z,25.47
2018-12-15T04:16:39.630Z,25.97
2018-12-15T04:19:07.251Z,26.33
2018-12-15T04:21:35.107Z,25.13
2018-12-15T04:24:02.973Z,24.20
2018-12-15T04:26:30.463Z,25.40
2018-12-15T04:28:58.443Z,25.23
2018-12-15T04:31:25.929Z,24.13
2018-12-15T04:33:53.437Z,24.53
2018-12-15T04:36:21.008Z,24.50
2018-12-15T04:38:48.487Z,25.03
2018-12-15T04:41:16.031Z,24.83
2018-12-15T04:43:43.554Z,24.83
2018-12-15T04:46:12.505Z,24.53
2018-12-15T04:48:40.025Z,25.10
2018-12-15T04:51:07.584Z,25.30
2018-12-15T04:53:35.311Z,25.23
2018-12-15T04:56:02.823Z,24.60
2018-12-15T04:58:30.289Z,24.50
2018-12-15T05:00:57.828Z,25.40
2018-12-15T05:03:25.352Z,24.57
2018-12-15T05:05:52.836Z,24.27
2018-12-15T05:08:20.355Z,26.37
2018-12-15T05:10:47.852Z,26.20
2018-12-15T05:13:15.914Z,25.67
2018-12-15T05:15:43.389Z,24.87
2018-12-15T05:18:18.017Z,24.57
2018-12-15T05:20:41.165Z,25.83
2018-12-15T05:23:08.678Z,23.93
2018-12-15T05:25:36.607Z,23.83
2018-12-15T05:28:04.196Z,22.67
2018-12-15T05:30:31.675Z,22.27
2018-12-15T05:32:59.273Z,23.03
2018-12-15T05:35:26.831Z,21.80
2018-12-15T05:37:54.307Z,20.70
2018-12-15T05:40:22.366Z,21.47
2018-12-15T05:42:49.844Z,22.03
2018-12-15T05:45:19.131Z,21.83
2018-12-15T05:47:46.680Z,21.07
2018-12-15T05:50:14.164Z,20.10
2018-12-15T05:52:41.632Z,20.97
2018-12-15T05:55:09.139Z,20.90
2018-12-15T05:57:36.967Z,20.43
2018-12-15T06:00:08.052Z,19.80
2018-12-15T06:02:35.996Z,19.07
2018-12-15T06:05:04.446Z,18.67
2018-12-15T06:07:32.391Z,19.30
2018-12-15T06:09:59.924Z,18.93
2018-12-15T06:12:27.405Z,19.10
2018-12-15T06:14:54.900Z,18.93
2018-12-15T06:17:22.441Z,19.37
2018-12-15T06:19:49.925Z,18.80
2018-12-15T06:22:17.451Z,17.37
2018-12-15T06:24:44.923Z,17.97
2018-12-15T06:27:12.415Z,17.30
2018-12-15T06:29:39.920Z,17.27
2018-12-15T06:32:07.433Z,18.60
2018-12-15T06:34:34.926Z,16.37
2018-12-15T06:37:02.390Z,15.97
2018-12-15T06:39:29.849Z,15.67
2018-12-15T06:41:57.351Z,16.63
2018-12-15T06:44:24.819Z,15.80
2018-12-15T06:46:52.337Z,17.57
2018-12-15T06:49:19.797Z,17.27
2018-12-15T06:51:48.074Z,17.17
2018-12-15T06:54:15.712Z,15.97
2018-12-15T06:56:44.622Z,17.17
2018-12-15T06:59:12.183Z,15.97
2018-12-15T07:01:42.299Z,16.60
2018-12-15T07:04:10.380Z,15.87
2018-12-15T07:06:39.245Z,16.47
2018-12-15T07:09:07.826Z,16.77
2018-12-15T07:11:36.044Z,16.43
2018-12-15T07:14:03.680Z,18.23
2018-12-15T07:16:31.353Z,16.90
2018-12-15T07:18:59.332Z,16.47
2018-12-15T07:21:26.803Z,14.87
2018-12-15T07:23:59.868Z,16.30
2018-12-15T07:26:27.337Z,17.20
2018-12-15T07:28:54.887Z,16.43
2018-12-15T07:31:22.590Z,16.70
2018-12-15T07:33:50.098Z,16.53
2018-12-15T07:36:17.617Z,16.67
2018-12-15T07:38:45.112Z,17.07
2018-12-15T07:41:12.603Z,16.10
2018-12-15T07:43:40.235Z,16.63
2018-12-15T07:46:07.814Z,15.77
2018-12-15T07:48:35.287Z,16.63
2018-12-15T07:51:02.808Z,17.33
2018-12-15T07:53:30.477Z,16.00
2018-12-15T07:55:57.956Z,16.67
2018-12-15T07:58:25.587Z,16.83
2018-12-15T08:00:53.088Z,16.37
2018-12-15T08:03:21.341Z,14.87
2018-12-15T08:05:48.819Z,15.17
2018-12-15T08:08:21.081Z,15.13
2018-12-15T08:10:54.067Z,15.20
2018-12-15T08:13:24.250Z,15.10
2018-12-15T08:15:51.743Z,15.10
2018-12-15T08:18:19.307Z,15.37
2018-12-15T08:20:46.829Z,14.73
2018-12-15T08:23:19.816Z,14.77
2018-12-15T08:25:47.340Z,14.40
2018-12-15T08:28:15.001Z,13.83
2018-12-15T08:30:42.498Z,14.23
2018-12-15T08:33:10.830Z,14.60
2018-12-15T08:35:38.305Z,14.67
2018-12-15T08:38:05.920Z,13.30
2018-12-15T08:40:33.620Z,13.77
2018-12-15T08:43:01.179Z,13.77
2018-12-15T08:45:28.754Z,12.93
2018-12-15T08:47:56.801Z,13.63
2018-12-15T08:50:24.289Z,13.77
2018-12-15T08:52:52.155Z,13.13
2018-12-15T08:55:19.764Z,12.37
2018-12-15T08:57:47.294Z,13.10
2018-12-15T09:00:14.795Z,13.60
2018-12-15T09:02:42.279Z,14.53
2018-12-15T09:05:09.789Z,15.40
2018-12-15T09:07:37.276Z,14.40
2018-12-15T09:10:07.151Z,15.13
2018-12-15T09:12:34.749Z,15.50
2018-12-15T09:15:02.280Z,15.07
2018-12-15T09:17:29.864Z,15.20
2018-12-15T09:19:57.350Z,14.90
2018-12-15T09:22:32.931Z,14.93
2018-12-15T09:25:00.396Z,16.87
2018-12-15T09:27:27.951Z,16.57
2018-12-15T09:29:55.538Z,15.67
2018-12-15T09:32:23.171Z,16.90
2018-12-15T09:34:52.137Z,16.23
2018-12-15T09:37:19.721Z,15.33
2018-12-15T09:39:47.316Z,15.63
2018-12-15T09:42:14.839Z,17.90
2018-12-15T09:44:42.613Z,16.60
2018-12-15T09:47:10.967Z,18.30
2018-12-15T09:49:38.540Z,18.17
2018-12-15T09:52:06.001Z,17.73
2018-12-15T09:54:36.517Z,18.43
2018-12-15T09:57:04.645Z,16.70
2018-12-15T09:59:32.195Z,16.90
2018-12-15T10:01:59.762Z,18.30
2018-12-15T10:04:27.259Z,17.23
2018-12-15T10:06:54.860Z,20.33
2018-12-15T10:09:22.351Z,18.43
2018-12-15T10:11:49.828Z,18.40
2018-12-15T10:14:17.338Z,19.83
2018-12-15T10:16:45.087Z,19.90
2018-12-15T10:19:12.582Z,21.43
2018-12-15T10:21:40.054Z,19.93
2018-12-15T10:24:07.549Z,21.03
2018-12-15T10:26:35.035Z,20.70
2018-12-15T10:29:03.612Z,20.60
2018-12-15T10:31:36.935Z,20.27
2018-12-15T10:34:04.913Z,21.73
2018-12-15T10:36:32.521Z,23.03
2018-12-15T10:39:00.128Z,22.10
2018-12-15T10:41:27.733Z,21.00
2018-12-15T10:43:55.240Z,20.97
2018-12-15T10:46:22.713Z,20.50
2018-12-15T10:48:50.177Z,20.90
2018-12-15T10:51:17.744Z,19.40
2018-12-15T10:53:45.674Z,19.93
2018-12-15T10:56:13.973Z,21.07
2018-12-15T10:58:41.471Z,20.07
2018-12-15T11:01:23.501Z,20.13
2018-12-15T11:03:51.089Z,20.17
2018-12-15T11:06:18.760Z,20.30
2018-12-15T11:08:46.243Z,19.97
2018-12-15T11:11:13.744Z,20.43
2018-12-15T11:13:41.221Z,20.50
2018-12-15T11:16:08.807Z,19.90
2018-12-15T11:18:36.351Z,17.73
2018-12-15T11:21:03.821Z,19.63
2018-12-15T11:23:31.352Z,18.77
2018-12-15T11:25:58.835Z,18.33
2018-12-15T11:28:26.366Z,18.67
2018-12-15T11:30:53.818Z,17.77
2018-12-15T11:33:21.323Z,16.97
2018-12-15T11:35:48.797Z,16.87
2018-12-15T11:38:16.305Z,15.53
2018-12-15T11:40:43.880Z,15.10
2018-12-15T11:43:11.379Z,16.57
2018-12-15T11:45:38.931Z,15.97
2018-12-15T11:48:06.576Z,16.03
2018-12-15T11:50:34.151Z,16.10
2018-12-15T11:53:01.691Z,17.03
2018-12-15T11:55:29.249Z,17.90
2018-12-15T11:57:56.766Z,19.63
2018-12-15T12:00:24.329Z,19.33
2018-12-15T12:02:51.912Z,20.13
2018-12-15T12:05:19.443Z,18.10
2018-12-15T12:07:47.027Z,20.00
2018-12-15T12:10:14.626Z,18.33
2018-12-15T12:12:42.237Z,18.53
2018-12-15T12:15:09.783Z,19.33
2018-12-15T12:17:37.262Z,18.70
2018-12-15T12:20:06.721Z,18.47
2018-12-15T12:22:34.332Z,16.73
2018-12-15T12:25:01.867Z,17.27
2018-12-15T12:27:29.360Z,16.80
2018-12-15T12:29:56.909Z,16.90
2018-12-15T12:32:24.987Z,16.57
2018-12-15T12:34:53.253Z,16.23
2018-12-15T12:37:20.732Z,15.83
2018-12-15T12:39:48.222Z,16.80
2018-12-15T12:42:15.741Z,16.63
2018-12-15T12:44:43.310Z,17.30
2018-12-15T12:47:10.794Z,16.83
2018-12-15T12:49:38.316Z,16.40
2018-12-15T12:52:05.823Z,16.23
2018-12-15T12:54:33.884Z,15.83
2018-12-15T12:57:01.390Z,17.23
2018-12-15T12:59:29.412Z,17.10
2018-12-15T13:01:57.420Z,15.90
2018-12-15T13:04:24.917Z,17.57
2018-12-15T13:06:54.281Z,17.00
2018-12-15T13:09:21.790Z,16.87
2018-12-15T13:11:49.280Z,16.80
2018-12-15T13:14:16.749Z,15.80
2018-12-15T13:16:44.270Z,18.30
2018-12-15T13:19:11.772Z,18.73
2018-12-15T13:21:39.262Z,17.60
2018-12-15T13:24:06.866Z,18.80
2018-12-15T13:26:34.363Z,18.53
2018-12-15T13:29:02.177Z,18.53
2018-12-15T13:31:29.686Z,17.60
2018-12-15T13:33:57.156Z,19.23
2018-12-15T13:36:24.691Z,18.13
2018-12-15T13:38:52.271Z,17.63
2018-12-15T13:41:20.441Z,17.90
2018-12-15T13:43:47.922Z,17.77
2018-12-15T13:46:15.651Z,17.13
2018-12-15T13:48:43.105Z,15.60
2018-12-15T13:51:10.651Z,16.57
2018-12-15T13:53:38.102Z,15.40
2018-12-15T13:56:06.139Z,14.37
2018-12-15T13:58:33.755Z,15.20
2018-12-15T14:01:02.397Z,15.90
2018-12-15T14:03:29.947Z,16.90
2018-12-15T14:05:57.445Z,17.30
2018-12-15T14:08:25.066Z,16.93
2018-12-15T14:10:52.665Z,15.40
2018-12-15T14:13:20.185Z,17.90
2018-12-15T14:15:47.686Z,15.37
2018-12-15T14:18:15.308Z,15.67
2018-12-15T14:20:43.274Z,15.70
2018-12-15T14:23:10.800Z,16.17
2018-12-15T14:25:39.055Z,15.73
2018-12-15T14:28:06.824Z,15.50
2018-12-15T14:30:34.560Z,16.90
2018-12-15T14:33:03.266Z,17.17
2018-12-15T14:35:31.074Z,16.83
2018-12-15T14:37:58.649Z,18.13
2018-12-15T14:40:26.623Z,17.47
2018-12-15T14:42:54.988Z,18.40
2018-12-15T14:45:22.910Z,19.33
2018-12-15T14:47:52.063Z,20.20
2018-12-15T14:50:23.552Z,19.63
2018-12-15T14:52:50.777Z,20.30
2018-12-15T14:55:19.591Z,22.07
2018-12-15T14:57:47.418Z,21.90
2018-12-15T15:00:15.225Z,22.57
2018-12-15T15:02:43.661Z,23.20
2018-12-15T15:05:12.488Z,22.77
2018-12-15T15:07:44.131Z,22.73
2018-12-15T15:10:12.031Z,23.63
2018-12-15T15:12:39.828Z,22.33
2018-12-15T15:15:07.420Z,22.77
2018-12-15T15:17:35.268Z,23.93
2018-12-15T15:20:05.911Z,22.17
2018-12-15T15:22:34.079Z,21.87
2018-12-15T15:25:01.843Z,22.60
2018-12-15T15:27:46.998Z,22.03
2018-12-15T15:30:14.663Z,21.97
2018-12-15T15:32:42.339Z,23.10
2018-12-15T15:35:11.531Z,21.83
2018-12-15T15:37:39.020Z,22.37
2018-12-15T15:40:07.815Z,20.40
2018-12-15T15:42:36.825Z,22.37
2018-12-15T15:45:05.461Z,20.73
2018-12-15T15:47:33.107Z,21.73
2018-12-15T15:50:02.263Z,22.03
2018-12-15T15:52:29.972Z,21.33
2018-12-15T15:54:57.720Z,19.33
2018-12-15T15:57:25.437Z,19.80
2018-12-15T15:59:53.911Z,18.93
2018-12-15T16:02:21.650Z,19.37
2018-12-15T16:04:49.448Z,19.60
2018-12-15T16:07:17.190Z,19.37
2018-12-15T16:09:45.205Z,18.70
2018-12-15T16:12:13.226Z,18.60
2018-12-15T16:14:41.108Z,18.53
2018-12-15T16:17:08.973Z,19.50
2018-12-15T16:19:36.616Z,19.37
2018-12-15T16:22:05.031Z,18.53
2018-12-15T16:24:33.221Z,18.60
2018-12-15T16:27:01.057Z,17.80
2018-12-15T16:29:28.899Z,18.73
2018-12-15T16:31:56.701Z,18.97
2018-12-15T16:34:25.171Z,20.10
2018-12-15T16:36:53.488Z,19.73
2018-12-15T16:39:21.223Z,20.50
2018-12-15T16:41:49.431Z,21.07
2018-12-15T16:44:17.383Z,20.43
2018-12-15T16:46:45.146Z,19.93
2018-12-15T16:49:12.677Z,18.67
2018-12-15T16:51:40.278Z,21.00
2018-12-15T16:54:08.076Z,20.33
2018-12-15T16:56:36.217Z,22.83
2018-12-15T16:59:05.053Z,20.80
2018-12-15T17:01:34.750Z,21.17
2018-12-15T17:04:02.608Z,20.57
2018-12-15T17:06:31.027Z,20.37
2018-12-15T17:09:00.826Z,20.70
2018-12-15T17:11:28.947Z,21.30
2018-12-15T17:13:57.465Z,22.17
2018-12-15T17:16:25.106Z,22.63
2018-12-15T17:18:52.808Z,21.83
2018-12-15T17:21:20.562Z,20.70
2018-12-15T17:23:49.105Z,21.80
2018-12-15T17:26:16.725Z,21.53
2018-12-15T17:28:44.398Z,21.07
2018-12-15T17:31:12.185Z,20.67
2018-12-15T17:33:39.665Z,20.40
2018-12-15T17:36:07.193Z,20.77
2018-12-15T17:38:34.705Z,19.07
2018-12-15T17:41:02.209Z,19.07
2018-12-15T17:43:29.696Z,19.80
2018-12-15T17:45:58.345Z,18.63
2018-12-15T17:48:26.197Z,18.40
2018-12-15T17:50:54.702Z,20.37
2018-12-15T17:53:22.552Z,19.63
2018-12-15T17:55:50.129Z,18.50
2018-12-15T17:58:19.582Z,18.17
2018-12-15T18:00:48.233Z,19.93
2018-12-15T18:03:16.867Z,20.17
2018-12-15T18:05:44.734Z,21.17
2018-12-15T18:08:12.900Z,20.23
2018-12-15T18:10:41.696Z,20.23
2018-12-15T18:13:09.410Z,21.63
2018-12-15T18:15:37.044Z,20.23
2018-12-15T18:18:04.556Z,19.77
2018-12-15T18:20:32.363Z,22.70
2018-12-15T18:23:00.953Z,20.57
2018-12-15T18:25:28.430Z,21.03
2018-12-15T18:27:56.741Z,20.53
2018-12-15T18:30:24.466Z,20.20
2018-12-15T18:32:52.215Z,22.03
2018-12-15T18:35:19.917Z,20.77
2018-12-15T18:37:48.612Z,20.43
2018-12-15T18:40:16.336Z,20.07
2018-12-15T18:42:44.410Z,19.43
2018-12-15T18:45:12.259Z,18.67
2018-12-15T18:47:40.047Z,18.10
2018-12-15T18:50:08.867Z,18.60
2018-12-15T18:52:37.147Z,18.37
2018-12-15T18:55:06.042Z,18.33
2018-12-15T18:57:34.523Z,19.17
2018-12-15T19:00:02.292Z,18.27
2018-12-15T19:02:29.956Z,18.63
2018-12-15T19:04:57.450Z,18.70
2018-12-15T19:07:25.126Z,18.37
2018-12-15T19:09:52.935Z,18.27
2018-12-15T19:12:20.756Z,17.77
2018-12-15T19:14:48.623Z,16.67
2018-12-15T19:17:16.290Z,18.43
2018-12-15T19:19:43.991Z,18.73
2018-12-15T19:22:11.724Z,18.77
2018-12-15T19:24:40.490Z,17.63
2018-12-15T19:27:09.191Z,18.83
2018-12-15T19:29:38.087Z,21.03
2018-12-15T19:32:05.846Z,20.00
2018-12-15T19:34:33.584Z,21.17
2018-12-15T19:37:02.915Z,21.07
2018-12-15T19:39:30.664Z,19.70
2018-12-15T19:41:58.809Z,18.87
2018-12-15T19:44:28.076Z,21.43
2018-12-15T19:46:56.239Z,20.67
2018-12-15T19:49:25.007Z,19.90
2018-12-15T19:51:52.714Z,19.40
2018-12-15T19:54:20.424Z,18.80
2018-12-15T19:56:48.289Z,17.73
2018-12-15T19:59:17.097Z,18.97
2018-12-15T20:01:45.486Z,18.03
2018-12-15T20:04:13.242Z,19.50
2018-12-15T20:06:40.977Z,20.07
2018-12-15T20:09:08.635Z,18.77
2018-12-15T20:11:37.765Z,19.77
2018-12-15T20:14:05.631Z,21.53
2018-12-15T20:16:33.980Z,20.70
2018-12-15T20:19:02.018Z,20.73
2018-12-15T20:21:35.991Z,20.50
2018-12-15T20:24:02.832Z,20.30
2018-12-15T20:26:30.424Z,19.30
2018-12-15T20:28:58.672Z,19.83
2018-12-15T20:31:26.360Z,19.80
2018-12-15T20:33:54.247Z,17.60
2018-12-15T20:36:21.747Z,17.17
2018-12-15T20:38:49.335Z,15.93
2018-12-15T20:41:17.082Z,16.30
2018-12-15T20:43:45.569Z,15.23
2018-12-15T20:46:14.753Z,14.00
2018-12-15T20:48:42.452Z,15.93
2018-12-15T20:51:11.568Z,17.47
2018-12-15T20:53:39.805Z,18.63
2018-12-15T20:56:07.443Z,22.53
2018-12-15T20:58:37.263Z,23.97
2018-12-15T21:01:05.675Z,22.70
2018-12-15T21:03:33.228Z,22.97
2018-12-15T21:06:01.509Z,24.63
2018-12-15T21:08:28.989Z,25.73
2018-12-15T21:10:56.505Z,23.57
2018-12-15T21:13:23.995Z,24.37
2018-12-15T21:15:53.758Z,25.27
2018-12-15T21:18:22.171Z,25.10
2018-12-15T21:20:49.935Z,24.93
2018-12-15T21:23:18.398Z,25.53
2018-12-15T21:25:45.863Z,24.13
2018-12-15T21:28:14.182Z,24.80
2018-12-15T21:30:41.775Z,23.77
2018-12-15T21:33:09.480Z,24.80
2018-12-15T21:35:37.106Z,24.93
2018-12-15T21:38:04.720Z,24.57
2018-12-15T21:40:32.325Z,24.03
2018-12-15T21:42:59.939Z,23.77
2018-12-15T21:45:28.688Z,25.07
2018-12-15T21:47:57.839Z,23.97
2018-12-15T21:50:25.885Z,23.67
2018-12-15T21:52:55.208Z,25.43
2018-12-15T21:55:25.281Z,24.80
2018-12-15T21:57:58.255Z,24.23
2018-12-15T22:00:26.429Z,23.80
2018-12-15T22:02:54.660Z,23.83
2018-12-15T22:05:22.127Z,22.33
2018-12-15T22:07:50.056Z,23.73
2018-12-15T22:10:17.563Z,23.63
2018-12-15T22:12:45.050Z,24.50
2018-12-15T22:15:12.598Z,24.60
2018-12-15T22:17:40.201Z,23.03
2018-12-15T22:20:09.891Z,25.40
2018-12-15T22:22:37.438Z,24.63
2018-12-15T22:25:05.429Z,25.30
2018-12-15T22:27:32.938Z,24.17
2018-12-15T22:30:01.071Z,26.10
2018-12-15T22:32:28.547Z,23.97
2018-12-15T22:34:56.077Z,27.30
2018-12-15T22:37:23.554Z,27.57
2018-12-15T22:39:51.034Z,26.70
2018-12-15T22:42:18.556Z,25.40
2018-12-15T22:44:46.038Z,25.90
2018-12-15T22:47:13.751Z,26.73
2018-12-15T22:49:41.692Z,27.07
2018-12-15T22:52:09.941Z,25.20
2018-12-15T22:54:37.793Z,26.60
2018-12-15T22:57:05.280Z,26.33
2018-12-15T22:59:32.986Z,24.43
2018-12-15T23:02:00.525Z,25.13
2018-12-15T23:04:28.108Z,20.47
2018-12-15T23:06:55.600Z,20.30
2018-12-15T23:09:23.079Z,19.43
2018-12-15T23:11:50.557Z,19.93
2018-12-15T23:14:18.497Z,20.07
2018-12-15T23:16:46.064Z,22.47
2018-12-15T23:19:13.676Z,20.17
2018-12-15T23:21:41.309Z,21.97
2018-12-15T23:24:08.806Z,21.87
2018-12-15T23:26:36.348Z,20.80
2018-12-15T23:29:04.352Z,21.40
2018-12-15T23:31:31.859Z,21.50
2018-12-15T23:33:59.409Z,20.63
2018-12-15T23:36:26.943Z,20.30
2018-12-15T23:38:54.423Z,20.97
2018-12-15T23:41:21.896Z,20.77
2018-12-15T23:43:49.804Z,20.30
2018-12-15T23:46:17.315Z,21.37
2018-12-15T23:48:44.840Z,21.37
2018-12-15T23:51:12.320Z,20.37
2018-12-15T23:53:39.866Z,20.43
2018-12-15T23:56:07.507Z,21.47
2018-12-15T23:58:35.516Z,20.43
